createdAt,value
2023-09-23T00:00:40.925Z,74.24
2023-09-23T00:03:27.652Z,73.98
2023-09-23T00:05:54.523Z,74.02
2023-09-23T00:08:21.502Z,73.83
2023-09-23T00:10:51.459Z,73.39
2023-09-23T00:13:21.049Z,73.59
2023-09-23T00:15:50.279Z,73.29
2023-09-23T00:18:18.188Z,73.21
2023-09-23T00:20:47.023Z,73.15
2023-09-23T00:23:14.941Z,72.99
2023-09-23T00:25:42.398Z,73.01
2023-09-23T00:28:11.490Z,72.54
2023-09-23T00:30:38.505Z,72.55
2023-09-23T00:33:06.638Z,72.33
2023-09-23T00:35:39.384Z,72.36
2023-09-23T00:38:07.175Z,72.41
2023-09-23T00:40:34.352Z,72.19
2023-09-23T00:43:12.201Z,72.39
2023-09-23T00:45:48.595Z,72.76
2023-09-23T00:48:19.305Z,72.75
2023-09-23T00:50:47.189Z,72.79
2023-09-23T00:53:15.118Z,73.43
2023-09-23T00:55:47.652Z,73.20
2023-09-23T00:58:15.386Z,73.36
2023-09-23T01:00:45.121Z,73.36
2023-09-23T01:03:11.925Z,73.32
2023-09-23T01:05:44.593Z,74.00
2023-09-23T01:08:12.823Z,74.49
2023-09-23T01:10:40.221Z,74.22
2023-09-23T01:13:10.565Z,74.13
2023-09-23T01:15:40.713Z,74.40
2023-09-23T01:18:23.831Z,74.55
2023-09-23T01:20:54.957Z,74.79
2023-09-23T01:23:22.295Z,75.08
2023-09-23T01:25:49.526Z,75.23
2023-09-23T01:28:16.199Z,75.11
2023-09-23T01:30:46.257Z,74.91
2023-09-23T01:33:14.517Z,75.39
2023-09-23T01:35:42.558Z,75.35
2023-09-23T01:38:09.212Z,75.36
2023-09-23T01:40:43.862Z,75.16
2023-09-23T01:43:16.680Z,75.49
2023-09-23T01:45:43.571Z,75.81
2023-09-23T01:48:15.869Z,76.33
2023-09-23T01:50:42.439Z,76.52
2023-09-23T01:53:09.333Z,77.15
2023-09-23T01:55:37.339Z,77.87
2023-09-23T01:58:04.203Z,78.35
2023-09-23T02:00:39.222Z,78.99
2023-09-23T02:03:06.108Z,79.33
2023-09-23T02:05:32.802Z,79.53
2023-09-23T02:08:01.455Z,79.92
2023-09-23T02:10:28.949Z,80.15
2023-09-23T02:12:57.924Z,80.81
2023-09-23T02:15:24.598Z,81.02
2023-09-23T02:17:52.107Z,82.29
2023-09-23T02:20:23.782Z,83.68
2023-09-23T02:22:55.481Z,85.14
2023-09-23T02:25:26.536Z,85.06
2023-09-23T02:27:55.549Z,86.68
2023-09-23T02:30:22.553Z,88.93
2023-09-23T02:32:49.229Z,87.39
2023-09-23T02:35:16.965Z,86.95
2023-09-23T02:37:45.628Z,88.66
2023-09-23T02:40:18.055Z,88.35
2023-09-23T02:42:47.126Z,88.04
2023-09-23T02:45:18.261Z,87.44
2023-09-23T02:47:46.634Z,87.41
2023-09-23T02:50:22.442Z,86.82
2023-09-23T02:52:50.611Z,86.87
2023-09-23T02:55:20.346Z,86.81
2023-09-23T02:57:50.501Z,86.58
2023-09-23T03:00:18.645Z,86.52
2023-09-23T03:02:50.916Z,86.53
2023-09-23T03:05:17.931Z,86.43
2023-09-23T03:07:48.680Z,86.20
2023-09-23T03:10:19.510Z,85.98
2023-09-23T03:13:02.711Z,86.14
2023-09-23T03:15:34.890Z,86.16
2023-09-23T03:18:01.870Z,85.86
2023-09-23T03:20:28.508Z,85.90
2023-09-23T03:22:55.047Z,85.92
2023-09-23T03:25:22.585Z,85.97
2023-09-23T03:27:51.802Z,86.15
2023-09-23T03:30:20.061Z,86.07
2023-09-23T03:32:52.125Z,85.90
2023-09-23T03:35:21.476Z,86.06
2023-09-23T03:37:49.951Z,86.32
2023-09-23T03:40:21.525Z,86.05
2023-09-23T03:42:48.988Z,86.27
2023-09-23T03:45:15.916Z,85.97
2023-09-23T03:47:43.080Z,86.24
2023-09-23T03:50:09.885Z,86.50
2023-09-23T03:52:37.215Z,87.08
2023-09-23T03:55:04.353Z,86.97
2023-09-23T03:57:31.191Z,87.29
2023-09-23T03:59:57.833Z,87.18
2023-09-23T04:02:24.321Z,87.35
2023-09-23T04:05:00.894Z,87.19
2023-09-23T04:07:27.466Z,87.07
2023-09-23T04:09:53.970Z,87.28
2023-09-23T04:12:20.526Z,87.52
2023-09-23T04:14:47.071Z,87.53
2023-09-23T04:17:13.686Z,87.62
2023-09-23T04:19:40.391Z,87.87
2023-09-23T04:22:07.567Z,87.97
2023-09-23T04:24:34.092Z,87.98
2023-09-23T04:27:00.632Z,88.40
2023-09-23T04:29:29.265Z,88.24
2023-09-23T04:32:02.360Z,87.85
2023-09-23T04:34:30.187Z,87.69
2023-09-23T04:36:57.306Z,87.79
2023-09-23T04:39:23.801Z,87.81
2023-09-23T04:41:50.291Z,87.88
2023-09-23T04:44:17.880Z,87.93
2023-09-23T04:46:46.104Z,88.47
2023-09-23T04:49:12.648Z,88.57
2023-09-23T04:51:39.206Z,88.61
2023-09-23T04:54:08.416Z,89.21
2023-09-23T04:56:35.782Z,89.23
2023-09-23T04:59:04.232Z,89.06
2023-09-23T05:01:31.222Z,88.94
2023-09-23T05:04:00.326Z,89.01
2023-09-23T05:06:27.384Z,88.83
2023-09-23T05:08:55.972Z,89.20
2023-09-23T05:11:24.048Z,88.97
2023-09-23T05:13:50.730Z,88.91
2023-09-23T05:16:23.389Z,88.82
2023-09-23T05:18:50.313Z,88.61
2023-09-23T05:21:19.434Z,88.30
2023-09-23T05:23:49.472Z,88.32
2023-09-23T05:26:16.741Z,87.95
2023-09-23T05:28:43.980Z,87.98
2023-09-23T05:31:14.594Z,87.77
2023-09-23T05:33:41.661Z,87.82
2023-09-23T05:36:08.384Z,87.80
2023-09-23T05:38:36.972Z,87.81
2023-09-23T05:41:04.077Z,87.90
2023-09-23T05:43:30.664Z,88.04
2023-09-23T05:45:57.614Z,88.26
2023-09-23T05:48:25.410Z,88.15
2023-09-23T05:50:58.898Z,88.29
2023-09-23T05:53:25.552Z,88.36
2023-09-23T05:55:54.960Z,88.30
2023-09-23T05:58:21.459Z,87.98
2023-09-23T06:00:48.422Z,87.56
2023-09-23T06:03:17.165Z,87.60
2023-09-23T06:05:51.716Z,87.77
2023-09-23T06:08:18.336Z,87.86
2023-09-23T06:10:45.043Z,87.93
2023-09-23T06:13:11.859Z,87.98
2023-09-23T06:15:38.510Z,87.92
2023-09-23T06:18:09.364Z,88.07
2023-09-23T06:20:36.095Z,88.44
2023-09-23T06:23:02.849Z,88.65
2023-09-23T06:25:29.752Z,88.57
2023-09-23T06:27:56.757Z,88.62
2023-09-23T06:30:43.449Z,88.76
2023-09-23T06:33:10.281Z,88.62
2023-09-23T06:35:37.951Z,88.50
2023-09-23T06:38:04.530Z,88.37
2023-09-23T06:40:31.193Z,88.29
2023-09-23T06:42:58.027Z,88.29
2023-09-23T06:45:25.050Z,87.98
2023-09-23T06:47:51.932Z,87.95
2023-09-23T06:50:24.064Z,87.48
2023-09-23T06:52:50.738Z,87.85
2023-09-23T06:55:17.861Z,87.75
2023-09-23T06:57:44.736Z,87.83
2023-09-23T07:00:11.942Z,87.39
2023-09-23T07:02:39.133Z,87.65
2023-09-23T07:05:08.511Z,87.29
2023-09-23T07:07:39.134Z,87.08
2023-09-23T07:10:06.516Z,87.42
2023-09-23T07:12:33.460Z,87.75
2023-09-23T07:15:00.285Z,87.96
2023-09-23T07:17:27.411Z,87.86
2023-09-23T07:20:01.559Z,87.57
2023-09-23T07:22:35.185Z,87.61
2023-09-23T07:25:06.682Z,87.75
2023-09-23T07:27:33.252Z,87.99
2023-09-23T07:30:00.346Z,88.26
2023-09-23T07:32:27.102Z,88.20
2023-09-23T07:34:54.013Z,87.78
2023-09-23T07:37:20.731Z,87.74
2023-09-23T07:39:47.457Z,87.61
2023-09-23T07:42:13.919Z,87.18
2023-09-23T07:44:40.490Z,87.47
2023-09-23T07:47:08.044Z,86.87
2023-09-23T07:49:38.685Z,86.79
2023-09-23T07:52:05.448Z,86.07
2023-09-23T07:54:33.195Z,86.31
2023-09-23T07:56:59.877Z,86.15
2023-09-23T07:59:26.686Z,86.31
2023-09-23T08:01:53.458Z,86.07
2023-09-23T08:04:20.119Z,86.04
2023-09-23T08:06:46.717Z,86.03
2023-09-23T08:09:23.473Z,86.18
2023-09-23T08:11:50.118Z,85.65
2023-09-23T08:14:16.719Z,85.90
2023-09-23T08:16:43.929Z,84.94
2023-09-23T08:19:10.666Z,85.01
2023-09-23T08:21:37.356Z,84.47
2023-09-23T08:24:04.235Z,84.01
2023-09-23T08:26:31.026Z,83.09
2023-09-23T08:28:58.346Z,83.05
2023-09-23T08:31:25.074Z,83.11
2023-09-23T08:33:51.812Z,83.61
2023-09-23T08:36:18.462Z,83.13
2023-09-23T08:38:46.427Z,83.20
2023-09-23T08:41:16.831Z,82.58
2023-09-23T08:43:44.608Z,81.58
2023-09-23T08:46:12.353Z,81.02
2023-09-23T08:48:39.555Z,80.54
2023-09-23T08:51:08.929Z,81.09
2023-09-23T08:53:40.011Z,80.85
2023-09-23T08:56:07.331Z,80.79
2023-09-23T08:58:34.053Z,79.69
2023-09-23T09:01:01.323Z,78.89
2023-09-23T09:03:27.959Z,77.74
2023-09-23T09:05:54.759Z,78.47
2023-09-23T09:08:23.101Z,78.22
2023-09-23T09:10:49.829Z,77.71
2023-09-23T09:13:18.173Z,76.82
2023-09-23T09:15:45.214Z,76.58
2023-09-23T09:18:14.458Z,75.50
2023-09-23T09:20:42.092Z,75.65
2023-09-23T09:23:14.020Z,76.04
2023-09-23T09:25:47.551Z,75.76
2023-09-23T09:28:17.610Z,75.82
2023-09-23T09:30:45.678Z,74.42
2023-09-23T09:33:16.746Z,74.87
2023-09-23T09:35:54.650Z,74.15
2023-09-23T09:38:23.842Z,73.26
2023-09-23T09:40:52.246Z,72.44
2023-09-23T09:43:20.942Z,72.72
2023-09-23T09:45:47.742Z,72.56
2023-09-23T09:48:15.036Z,72.75
2023-09-23T09:50:44.151Z,72.54
2023-09-23T09:53:10.864Z,71.98
2023-09-23T09:55:38.725Z,71.97
2023-09-23T09:58:05.468Z,71.26
2023-09-23T10:00:42.971Z,71.59
2023-09-23T10:03:13.613Z,71.70
2023-09-23T10:05:44.626Z,72.13
2023-09-23T10:08:18.717Z,72.46
2023-09-23T10:10:47.941Z,72.36
2023-09-23T10:13:22.865Z,72.17
2023-09-23T10:15:50.051Z,72.10
2023-09-23T10:18:18.721Z,72.34
2023-09-23T10:20:51.797Z,71.99
2023-09-23T10:23:20.977Z,71.69
2023-09-23T10:25:52.930Z,72.00
2023-09-23T10:28:30.767Z,72.00
2023-09-23T10:31:04.246Z,71.89
2023-09-23T10:33:35.043Z,72.33
2023-09-23T10:36:03.989Z,71.85
2023-09-23T10:38:35.698Z,71.63
2023-09-23T10:41:03.274Z,71.98
2023-09-23T10:43:31.789Z,71.62
2023-09-23T10:46:02.263Z,70.62
2023-09-23T10:48:30.025Z,71.43
2023-09-23T10:50:56.757Z,71.07
2023-09-23T10:53:25.858Z,70.75
2023-09-23T10:55:52.526Z,70.76
2023-09-23T10:58:20.219Z,70.69
2023-09-23T11:00:52.770Z,70.19
2023-09-23T11:03:23.426Z,70.35
2023-09-23T11:05:51.796Z,70.35
2023-09-23T11:08:19.318Z,70.34
2023-09-23T11:10:48.413Z,70.56
2023-09-23T11:13:18.099Z,70.73
2023-09-23T11:15:45.868Z,70.27
2023-09-23T11:18:17.489Z,70.12
2023-09-23T11:20:46.547Z,70.30
2023-09-23T11:23:14.257Z,70.05
2023-09-23T11:25:43.297Z,70.38
2023-09-23T11:28:27.150Z,70.39
2023-09-23T11:30:58.147Z,70.42
2023-09-23T11:33:28.032Z,70.57
2023-09-23T11:35:55.452Z,70.72
2023-09-23T11:38:22.133Z,70.76
2023-09-23T11:40:48.984Z,70.14
2023-09-23T11:43:19.108Z,70.20
2023-09-23T11:45:48.893Z,70.46
2023-09-23T11:48:35.990Z,70.43
2023-09-23T11:51:09.406Z,70.15
2023-09-23T11:53:37.600Z,70.12
2023-09-23T11:56:04.274Z,69.94
2023-09-23T11:58:30.904Z,69.85
2023-09-23T12:00:57.607Z,70.13
2023-09-23T12:03:26.539Z,70.08
2023-09-23T12:05:55.252Z,70.02
2023-09-23T12:08:22.331Z,69.68
2023-09-23T12:10:49.045Z,69.75
2023-09-23T12:13:25.114Z,69.55
2023-09-23T12:15:53.153Z,69.22
2023-09-23T12:18:19.685Z,69.33
2023-09-23T12:20:46.539Z,69.48
2023-09-23T12:23:15.984Z,69.44
2023-09-23T12:25:43.663Z,69.04
2023-09-23T12:28:10.218Z,69.36
2023-09-23T12:30:37.287Z,68.93
2023-09-23T12:33:05.084Z,69.16
2023-09-23T12:35:38.166Z,69.19
2023-09-23T12:38:04.780Z,69.25
2023-09-23T12:40:32.609Z,69.41
2023-09-23T12:42:59.263Z,69.42
2023-09-23T12:45:25.863Z,69.30
2023-09-23T12:47:57.901Z,69.26
2023-09-23T12:50:46.696Z,69.84
2023-09-23T12:53:13.310Z,69.38
2023-09-23T12:55:40.975Z,69.61
2023-09-23T12:58:09.980Z,69.59
2023-09-23T13:00:37.559Z,69.34
2023-09-23T13:03:05.828Z,69.06
2023-09-23T13:05:33.062Z,69.03
2023-09-23T13:07:59.873Z,69.25
2023-09-23T13:10:26.513Z,68.99
2023-09-23T13:12:53.185Z,68.56
2023-09-23T13:15:22.167Z,68.98
2023-09-23T13:17:50.267Z,69.30
2023-09-23T13:20:18.014Z,69.05
2023-09-23T13:22:44.552Z,68.92
2023-09-23T13:25:15.127Z,69.01
2023-09-23T13:27:42.440Z,69.40
2023-09-23T13:30:12.113Z,69.24
2023-09-23T13:32:39.664Z,69.18
2023-09-23T13:35:09.995Z,69.33
2023-09-23T13:37:37.069Z,69.13
2023-09-23T13:40:05.227Z,69.01
2023-09-23T13:42:32.152Z,68.84
2023-09-23T13:44:58.752Z,68.63
2023-09-23T13:47:26.555Z,68.67
2023-09-23T13:49:58.545Z,68.72
2023-09-23T13:52:25.041Z,68.81
2023-09-23T13:54:52.638Z,68.47
2023-09-23T13:57:19.361Z,68.61
2023-09-23T13:59:45.931Z,68.74
2023-09-23T14:02:16.586Z,68.75
2023-09-23T14:04:43.467Z,68.61
2023-09-23T14:07:10.804Z,68.36
2023-09-23T14:09:37.426Z,68.39
2023-09-23T14:12:04.566Z,68.54
2023-09-23T14:14:31.233Z,68.54
2023-09-23T14:16:57.836Z,68.38
2023-09-23T14:19:24.324Z,68.29
2023-09-23T14:21:50.919Z,68.20
2023-09-23T14:24:18.978Z,68.18
2023-09-23T14:26:45.562Z,68.10
2023-09-23T14:29:12.376Z,67.77
2023-09-23T14:31:39.612Z,68.10
2023-09-23T14:34:07.642Z,68.19
2023-09-23T14:36:40.442Z,68.38
2023-09-23T14:39:07.573Z,68.28
2023-09-23T14:41:35.173Z,68.68
2023-09-23T14:44:03.246Z,68.58
2023-09-23T14:46:30.616Z,68.39
2023-09-23T14:49:00.011Z,68.43
2023-09-23T14:51:26.639Z,68.77
2023-09-23T14:53:53.415Z,68.96
2023-09-23T14:56:21.726Z,68.91
2023-09-23T14:58:49.564Z,68.96
2023-09-23T15:01:16.224Z,68.99
2023-09-23T15:03:43.341Z,68.97
2023-09-23T15:06:10.060Z,68.78
2023-09-23T15:08:53.761Z,68.95
2023-09-23T15:11:23.873Z,69.10
2023-09-23T15:13:50.440Z,69.55
2023-09-23T15:16:17.059Z,69.52
2023-09-23T15:18:43.768Z,69.60
2023-09-23T15:21:12.117Z,69.88
2023-09-23T15:23:39.294Z,69.32
2023-09-23T15:26:06.000Z,69.58
2023-09-23T15:28:32.900Z,69.87
2023-09-23T15:31:06.227Z,70.16
2023-09-23T15:33:33.753Z,70.19
2023-09-23T15:36:00.317Z,70.53
2023-09-23T15:38:26.968Z,70.13
2023-09-23T15:40:53.645Z,70.57
2023-09-23T15:43:20.307Z,70.61
2023-09-23T15:45:46.989Z,70.84
2023-09-23T15:48:13.583Z,71.07
2023-09-23T15:50:40.393Z,71.32
2023-09-23T15:53:09.484Z,71.70
2023-09-23T15:55:36.572Z,71.85
2023-09-23T15:58:04.790Z,71.86
2023-09-23T16:00:33.547Z,71.77
2023-09-23T16:03:01.812Z,71.84
2023-09-23T16:05:29.685Z,72.19
2023-09-23T16:07:56.571Z,72.44
2023-09-23T16:10:23.871Z,72.71
2023-09-23T16:12:50.786Z,72.67
2023-09-23T16:15:17.845Z,72.70
2023-09-23T16:17:44.448Z,72.74
2023-09-23T16:20:11.588Z,72.98
2023-09-23T16:22:38.292Z,73.18
2023-09-23T16:25:05.305Z,73.11
2023-09-23T16:27:33.854Z,73.98
2023-09-23T16:30:07.514Z,73.68
2023-09-23T16:32:37.280Z,73.90
2023-09-23T16:35:12.612Z,73.64
2023-09-23T16:37:44.433Z,73.68
2023-09-23T16:40:11.301Z,74.51
2023-09-23T16:42:41.170Z,74.62
2023-09-23T16:45:07.941Z,74.67
2023-09-23T16:47:34.665Z,74.92
2023-09-23T16:50:01.261Z,74.67
2023-09-23T16:52:27.847Z,74.82
2023-09-23T16:54:54.396Z,75.16
2023-09-23T16:57:21.276Z,75.37
2023-09-23T16:59:48.606Z,75.37
2023-09-23T17:02:19.248Z,75.35
2023-09-23T17:04:48.148Z,75.21
2023-09-23T17:07:15.539Z,74.84
2023-09-23T17:09:44.583Z,74.70
2023-09-23T17:12:15.396Z,74.62
2023-09-23T17:14:42.841Z,74.33
2023-09-23T17:17:10.359Z,74.20
2023-09-23T17:19:37.708Z,74.00
2023-09-23T17:22:04.237Z,73.64
2023-09-23T17:24:30.727Z,73.89
2023-09-23T17:26:57.806Z,73.53
2023-09-23T17:29:28.637Z,73.64
2023-09-23T17:31:55.431Z,73.47
2023-09-23T17:34:23.365Z,73.57
2023-09-23T17:36:56.385Z,73.41
2023-09-23T17:39:23.745Z,73.68
2023-09-23T17:41:50.321Z,73.52
2023-09-23T17:44:17.638Z,73.60
2023-09-23T17:46:45.929Z,73.92
2023-09-23T17:49:13.127Z,73.57
2023-09-23T17:51:39.826Z,73.72
2023-09-23T17:54:07.536Z,73.67
2023-09-23T17:56:34.632Z,74.03
2023-09-23T17:59:01.487Z,74.00
2023-09-23T18:01:27.979Z,73.82
2023-09-23T18:03:54.843Z,74.06
2023-09-23T18:06:29.413Z,74.36
2023-09-23T18:09:02.923Z,74.35
2023-09-23T18:11:36.066Z,74.38
2023-09-23T18:14:04.736Z,73.95
2023-09-23T18:16:31.801Z,74.13
2023-09-23T18:18:58.458Z,74.30
2023-09-23T18:21:25.035Z,74.29
2023-09-23T18:23:52.170Z,73.71
2023-09-23T18:26:19.740Z,73.93
2023-09-23T18:28:46.801Z,73.70
2023-09-23T18:31:14.402Z,73.75
2023-09-23T18:33:46.733Z,73.77
2023-09-23T18:36:15.823Z,73.46
2023-09-23T18:38:46.042Z,73.55
2023-09-23T18:41:13.133Z,73.32
2023-09-23T18:43:41.994Z,73.48
2023-09-23T18:46:09.183Z,73.09
2023-09-23T18:48:36.065Z,73.08
2023-09-23T18:51:03.080Z,73.07
2023-09-23T18:53:29.900Z,73.09
2023-09-23T18:55:59.994Z,73.32
2023-09-23T18:58:33.621Z,73.13
2023-09-23T19:01:04.708Z,73.09
2023-09-23T19:03:31.885Z,73.18
2023-09-23T19:06:00.093Z,73.22
2023-09-23T19:08:27.879Z,72.98
2023-09-23T19:10:55.459Z,73.04
2023-09-23T19:13:22.544Z,72.99
2023-09-23T19:15:51.661Z,72.97
2023-09-23T19:18:19.465Z,73.05
2023-09-23T19:20:46.371Z,72.89
2023-09-23T19:23:14.817Z,72.91
2023-09-23T19:25:41.596Z,72.59
2023-09-23T19:28:08.993Z,72.42
2023-09-23T19:30:35.651Z,72.52
2023-09-23T19:33:02.886Z,72.29
2023-09-23T19:35:29.955Z,72.28
2023-09-23T19:37:56.859Z,72.25
2023-09-23T19:40:26.014Z,72.27
2023-09-23T19:42:55.809Z,72.29
2023-09-23T19:45:22.875Z,72.34
2023-09-23T19:47:52.558Z,72.16
2023-09-23T19:50:20.661Z,72.42
2023-09-23T19:52:48.067Z,72.11
2023-09-23T19:55:14.837Z,71.72
2023-09-23T19:57:42.464Z,71.79
2023-09-23T20:00:10.732Z,71.88
2023-09-23T20:02:41.534Z,71.91
2023-09-23T20:05:08.527Z,71.78
2023-09-23T20:07:35.762Z,71.96
2023-09-23T20:10:07.309Z,71.73
2023-09-23T20:12:37.199Z,71.58
2023-09-23T20:15:06.718Z,71.56
2023-09-23T20:17:35.357Z,71.55
2023-09-23T20:20:08.378Z,71.25
2023-09-23T20:22:34.919Z,71.29
2023-09-23T20:25:02.030Z,71.37
2023-09-23T20:27:28.675Z,71.32
2023-09-23T20:30:06.622Z,71.30
2023-09-23T20:32:38.187Z,71.49
2023-09-23T20:35:06.981Z,71.26
2023-09-23T20:37:42.034Z,71.14
2023-09-23T20:40:16.464Z,71.34
2023-09-23T20:42:44.351Z,71.19
2023-09-23T20:45:13.124Z,71.20
2023-09-23T20:47:41.102Z,71.11
2023-09-23T20:50:13.613Z,71.54
2023-09-23T20:52:41.299Z,71.64
2023-09-23T20:55:08.833Z,71.60
2023-09-23T20:57:35.512Z,71.45
2023-09-23T21:00:05.625Z,71.57
2023-09-23T21:02:32.571Z,71.88
2023-09-23T21:05:00.421Z,72.13
2023-09-23T21:07:33.066Z,71.90
2023-09-23T21:10:02.761Z,71.97
2023-09-23T21:12:29.289Z,72.13
2023-09-23T21:14:56.312Z,72.22
2023-09-23T21:17:24.725Z,71.84
2023-09-23T21:19:54.152Z,72.10
2023-09-23T21:22:20.701Z,72.18
2023-09-23T21:24:47.449Z,71.89
2023-09-23T21:27:14.749Z,71.98
2023-09-23T21:29:42.591Z,71.93
2023-09-23T21:32:09.816Z,72.07
2023-09-23T21:34:36.944Z,71.95
2023-09-23T21:37:03.881Z,72.03
2023-09-23T21:39:35.599Z,72.07
2023-09-23T21:42:02.980Z,72.12
2023-09-23T21:44:29.862Z,72.27
2023-09-23T21:46:56.642Z,72.24
2023-09-23T21:49:23.726Z,72.17
2023-09-23T21:51:50.327Z,72.32
2023-09-23T21:54:17.198Z,72.52
2023-09-23T21:56:44.921Z,72.49
2023-09-23T21:59:12.874Z,72.37
2023-09-23T22:01:42.106Z,72.21
2023-09-23T22:04:09.075Z,72.08
2023-09-23T22:06:38.701Z,72.13
2023-09-23T22:09:05.610Z,71.96
2023-09-23T22:11:34.041Z,72.04
2023-09-23T22:14:02.827Z,72.36
2023-09-23T22:16:29.636Z,72.31
2023-09-23T22:18:56.843Z,72.45
2023-09-23T22:21:31.942Z,72.74
2023-09-23T22:23:58.855Z,72.58
2023-09-23T22:26:25.478Z,72.61
2023-09-23T22:28:52.077Z,72.48
2023-09-23T22:31:28.001Z,72.89
2023-09-23T22:33:56.358Z,72.82
2023-09-23T22:36:23.425Z,72.91
2023-09-23T22:38:50.166Z,72.76
2023-09-23T22:41:18.489Z,73.01
2023-09-23T22:43:45.368Z,72.69
2023-09-23T22:46:12.268Z,73.13
2023-09-23T22:48:39.450Z,73.13
2023-09-23T22:51:06.050Z,73.32
2023-09-23T22:53:32.592Z,73.54
2023-09-23T22:55:59.572Z,73.65
2023-09-23T22:58:26.877Z,73.21
2023-09-23T23:00:53.843Z,73.67
2023-09-23T23:03:20.936Z,73.68
2023-09-23T23:05:47.954Z,73.56
2023-09-23T23:08:14.577Z,73.52
2023-09-23T23:10:44.636Z,73.66
2023-09-23T23:13:11.471Z,73.48
2023-09-23T23:15:39.561Z,73.58
2023-09-23T23:18:12.342Z,73.79
2023-09-23T23:20:39.417Z,73.86
2023-09-23T23:23:06.356Z,73.82
2023-09-23T23:25:37.541Z,73.24
2023-09-23T23:28:04.971Z,72.91
2023-09-23T23:30:31.566Z,73.83
2023-09-23T23:32:58.425Z,73.18
2023-09-23T23:35:27.678Z,73.41
2023-09-23T23:37:54.182Z,73.42
2023-09-23T23:40:22.255Z,73.19
2023-09-23T23:42:49.848Z,73.44
2023-09-23T23:45:20.944Z,72.98
2023-09-23T23:47:53.007Z,72.99
2023-09-23T23:50:20.843Z,72.96
2023-09-23T23:52:49.425Z,72.99
2023-09-23T23:55:16.044Z,73.53
2023-09-23T23:57:50.083Z,73.19
